sensor_id;sensor_type;location;lat;lon;timestamp;temperature;humidity
7117;DHT22;3600;48.568;7.870;2023-01-28T00:00:53;1.30;99.90
7117;DHT22;3600;48.568;7.870;2023-01-28T00:03:20;1.30;99.90
7117;DHT22;3600;48.568;7.870;2023-01-28T00:05:47;1.30;99.90
7117;DHT22;3600;48.568;7.870;2023-01-28T00:08:14;1.30;99.90
7117;DHT22;3600;48.568;7.870;2023-01-28T00:10:41;1.30;99.90
7117;DHT22;3600;48.568;7.870;2023-01-28T00:13:11;1.40;99.90
7117;DHT22;3600;48.568;7.870;2023-01-28T00:15:40;1.50;99.90
7117;DHT22;3600;48.568;7.870;2023-01-28T00:18:07;1.50;99.90
7117;DHT22;3600;48.568;7.870;2023-01-28T00:20:33;1.50;99.90
7117;DHT22;3600;48.568;7.870;2023-01-28T00:23:01;1.60;99.90
7117;DHT22;3600;48.568;7.870;2023-01-28T00:25:28;1.60;99.90
7117;DHT22;3600;48.568;7.870;2023-01-28T00:27:55;1.60;99.90
7117;DHT22;3600;48.568;7.870;2023-01-28T00:30:21;1.60;99.90
7117;DHT22;3600;48.568;7.870;2023-01-28T00:32:48;1.60;99.90
7117;DHT22;3600;48.568;7.870;2023-01-28T00:35:15;1.60;99.90
7117;DHT22;3600;48.568;7.870;2023-01-28T00:37:45;1.60;99.90
7117;DHT22;3600;48.568;7.870;2023-01-28T00:40:13;1.60;99.90
7117;DHT22;3600;48.568;7.870;2023-01-28T00:42:39;1.70;99.90
7117;DHT22;3600;48.568;7.870;2023-01-28T00:45:07;1.70;99.90
7117;DHT22;3600;48.568;7.870;2023-01-28T00:47:34;1.80;99.90
7117;DHT22;3600;48.568;7.870;2023-01-28T00:50:01;1.80;99.90
7117;DHT22;3600;48.568;7.870;2023-01-28T00:52:28;1.90;99.90
7117;DHT22;3600;48.568;7.870;2023-01-28T00:54:55;1.70;99.90
7117;DHT22;3600;48.568;7.870;2023-01-28T00:57:23;1.70;99.90
7117;DHT22;3600;48.568;7.870;2023-01-28T00:59:50;1.70;99.90
7117;DHT22;3600;48.568;7.870;2023-01-28T01:02:16;1.80;99.90
7117;DHT22;3600;48.568;7.870;2023-01-28T01:04:43;1.80;99.90
7117;DHT22;3600;48.568;7.870;2023-01-28T01:07:21;1.80;99.90
7117;DHT22;3600;48.568;7.870;2023-01-28T01:10:13;1.70;99.90
7117;DHT22;3600;48.568;7.870;2023-01-28T01:12:41;1.60;99.90
7117;DHT22;3600;48.568;7.870;2023-01-28T01:15:08;1.60;99.90
7117;DHT22;3600;48.568;7.870;2023-01-28T01:17:37;1.50;99.90
7117;DHT22;3600;48.568;7.870;2023-01-28T01:20:05;1.40;99.90
7117;DHT22;3600;48.568;7.870;2023-01-28T01:22:33;1.40;99.90
7117;DHT22;3600;48.568;7.870;2023-01-28T01:25:01;1.40;99.90
7117;DHT22;3600;48.568;7.870;2023-01-28T01:27:30;1.40;99.90
7117;DHT22;3600;48.568;7.870;2023-01-28T01:29:56;1.40;99.90
7117;DHT22;3600;48.568;7.870;2023-01-28T01:32:28;1.30;99.90
7117;DHT22;3600;48.568;7.870;2023-01-28T01:34:54;1.30;99.90
7117;DHT22;3600;48.568;7.870;2023-01-28T01:37:21;1.30;99.90
7117;DHT22;3600;48.568;7.870;2023-01-28T01:39:48;1.30;99.90
7117;DHT22;3600;48.568;7.870;2023-01-28T01:42:15;1.30;99.90
7117;DHT22;3600;48.568;7.870;2023-01-28T01:47:47;1.40;99.90
7117;DHT22;3600;48.568;7.870;2023-01-28T01:50:24;1.50;99.90
7117;DHT22;3600;48.568;7.870;2023-01-28T01:52:57;1.50;99.90
7117;DHT22;3600;48.568;7.870;2023-01-28T01:55:26;1.50;99.90
7117;DHT22;3600;48.568;7.870;2023-01-28T01:57:57;1.60;99.90
7117;DHT22;3600;48.568;7.870;2023-01-28T02:00:27;1.70;99.90
7117;DHT22;3600;48.568;7.870;2023-01-28T02:02:54;1.70;99.90
7117;DHT22;3600;48.568;7.870;2023-01-28T02:05:22;1.60;99.90
7117;DHT22;3600;48.568;7.870;2023-01-28T02:07:51;1.60;99.90
7117;DHT22;3600;48.568;7.870;2023-01-28T02:10:21;1.70;99.90
7117;DHT22;3600;48.568;7.870;2023-01-28T02:12:54;1.80;99.90
7117;DHT22;3600;48.568;7.870;2023-01-28T02:15:24;1.80;99.90
7117;DHT22;3600;48.568;7.870;2023-01-28T02:17:52;1.80;99.90
7117;DHT22;3600;48.568;7.870;2023-01-28T02:20:21;1.70;99.90
7117;DHT22;3600;48.568;7.870;2023-01-28T02:26:21;1.80;99.90
7117;DHT22;3600;48.568;7.870;2023-01-28T02:28:57;1.70;99.90
7117;DHT22;3600;48.568;7.870;2023-01-28T02:31:43;1.80;99.90
7117;DHT22;3600;48.568;7.870;2023-01-28T02:34:38;1.90;99.90
7117;DHT22;3600;48.568;7.870;2023-01-28T02:37:17;1.80;99.90
7117;DHT22;3600;48.568;7.870;2023-01-28T02:39:54;1.80;99.90
7117;DHT22;3600;48.568;7.870;2023-01-28T02:42:29;1.80;99.90
7117;DHT22;3600;48.568;7.870;2023-01-28T02:44:57;1.80;99.90
7117;DHT22;3600;48.568;7.870;2023-01-28T02:47:24;1.80;99.90
7117;DHT22;3600;48.568;7.870;2023-01-28T02:50:15;1.80;99.90
7117;DHT22;3600;48.568;7.870;2023-01-28T02:52:49;1.70;99.90
7117;DHT22;3600;48.568;7.870;2023-01-28T02:58:41;1.80;99.90
7117;DHT22;3600;48.568;7.870;2023-01-28T03:04:02;1.80;99.90
7117;DHT22;3600;48.568;7.870;2023-01-28T03:06:38;1.80;99.90
7117;DHT22;3600;48.568;7.870;2023-01-28T03:09:09;1.80;99.90
7117;DHT22;3600;48.568;7.870;2023-01-28T03:12:05;1.90;99.90
7117;DHT22;3600;48.568;7.870;2023-01-28T03:15:01;1.70;99.90
7117;DHT22;3600;48.568;7.870;2023-01-28T03:17:48;1.70;99.90
7117;DHT22;3600;48.568;7.870;2023-01-28T03:20:46;1.70;99.90
7117;DHT22;3600;48.568;7.870;2023-01-28T03:23:40;1.60;99.90
7117;DHT22;3600;48.568;7.870;2023-01-28T03:26:29;1.70;99.90
7117;DHT22;3600;48.568;7.870;2023-01-28T03:29:17;1.70;99.90
7117;DHT22;3600;48.568;7.870;2023-01-28T03:32:10;1.70;99.90
7117;DHT22;3600;48.568;7.870;2023-01-28T03:34:56;1.80;99.90
7117;DHT22;3600;48.568;7.870;2023-01-28T03:37:42;1.90;99.90
7117;DHT22;3600;48.568;7.870;2023-01-28T03:40:10;1.90;99.90
7117;DHT22;3600;48.568;7.870;2023-01-28T03:42:37;1.90;99.90
7117;DHT22;3600;48.568;7.870;2023-01-28T03:45:05;1.90;99.90
7117;DHT22;3600;48.568;7.870;2023-01-28T03:47:33;2.00;99.90
7117;DHT22;3600;48.568;7.870;2023-01-28T03:50:00;2.00;99.90
7117;DHT22;3600;48.568;7.870;2023-01-28T03:52:29;1.90;99.90
7117;DHT22;3600;48.568;7.870;2023-01-28T03:54:57;1.90;99.90
7117;DHT22;3600;48.568;7.870;2023-01-28T03:57:26;1.90;99.90
7117;DHT22;3600;48.568;7.870;2023-01-28T03:59:53;2.00;99.90
7117;DHT22;3600;48.568;7.870;2023-01-28T04:02:21;2.00;99.90
7117;DHT22;3600;48.568;7.870;2023-01-28T04:04:48;2.00;99.90
7117;DHT22;3600;48.568;7.870;2023-01-28T04:07:16;2.00;99.90
7117;DHT22;3600;48.568;7.870;2023-01-28T04:09:43;2.00;99.90
7117;DHT22;3600;48.568;7.870;2023-01-28T04:12:10;2.00;99.90
7117;DHT22;3600;48.568;7.870;2023-01-28T04:14:37;2.00;99.90
7117;DHT22;3600;48.568;7.870;2023-01-28T04:17:06;2.00;99.90
7117;DHT22;3600;48.568;7.870;2023-01-28T04:19:36;2.00;99.90
7117;DHT22;3600;48.568;7.870;2023-01-28T04:22:05;2.00;99.90
7117;DHT22;3600;48.568;7.870;2023-01-28T04:24:32;2.10;99.90
7117;DHT22;3600;48.568;7.870;2023-01-28T04:26:59;2.10;99.90
7117;DHT22;3600;48.568;7.870;2023-01-28T04:29:25;2.20;99.90
7117;DHT22;3600;48.568;7.870;2023-01-28T04:31:52;2.10;99.90
7117;DHT22;3600;48.568;7.870;2023-01-28T04:34:19;2.00;99.90
7117;DHT22;3600;48.568;7.870;2023-01-28T04:36:45;2.00;99.90
7117;DHT22;3600;48.568;7.870;2023-01-28T04:39:12;1.90;99.90
7117;DHT22;3600;48.568;7.870;2023-01-28T04:41:39;2.00;99.90
7117;DHT22;3600;48.568;7.870;2023-01-28T04:44:06;2.10;99.90
7117;DHT22;3600;48.568;7.870;2023-01-28T04:46:33;2.00;99.90
7117;DHT22;3600;48.568;7.870;2023-01-28T04:48:59;2.10;99.90
7117;DHT22;3600;48.568;7.870;2023-01-28T04:51:27;2.00;99.90
7117;DHT22;3600;48.568;7.870;2023-01-28T04:53:54;2.00;99.90
7117;DHT22;3600;48.568;7.870;2023-01-28T04:56:21;2.10;99.90
7117;DHT22;3600;48.568;7.870;2023-01-28T04:58:47;2.10;99.90
7117;DHT22;3600;48.568;7.870;2023-01-28T05:01:14;2.10;99.90
7117;DHT22;3600;48.568;7.870;2023-01-28T05:03:41;2.10;99.90
7117;DHT22;3600;48.568;7.870;2023-01-28T05:06:07;2.10;99.90
7117;DHT22;3600;48.568;7.870;2023-01-28T05:08:35;2.00;99.90
7117;DHT22;3600;48.568;7.870;2023-01-28T05:11:02;2.00;99.90
7117;DHT22;3600;48.568;7.870;2023-01-28T05:13:29;2.00;99.90
7117;DHT22;3600;48.568;7.870;2023-01-28T05:15:56;2.00;99.90
7117;DHT22;3600;48.568;7.870;2023-01-28T05:18:22;2.00;99.90
7117;DHT22;3600;48.568;7.870;2023-01-28T05:20:49;2.00;99.90
7117;DHT22;3600;48.568;7.870;2023-01-28T05:23:16;2.10;99.90
7117;DHT22;3600;48.568;7.870;2023-01-28T05:25:42;2.00;99.90
7117;DHT22;3600;48.568;7.870;2023-01-28T05:28:09;2.10;99.90
7117;DHT22;3600;48.568;7.870;2023-01-28T05:30:37;2.00;99.90
7117;DHT22;3600;48.568;7.870;2023-01-28T05:33:04;2.00;99.90
7117;DHT22;3600;48.568;7.870;2023-01-28T05:35:31;2.00;99.90
7117;DHT22;3600;48.568;7.870;2023-01-28T05:37:57;1.90;99.90
7117;DHT22;3600;48.568;7.870;2023-01-28T05:40:24;2.00;99.90
7117;DHT22;3600;48.568;7.870;2023-01-28T05:42:51;2.00;99.90
7117;DHT22;3600;48.568;7.870;2023-01-28T05:45:17;2.10;99.90
7117;DHT22;3600;48.568;7.870;2023-01-28T05:47:44;2.10;99.90
7117;DHT22;3600;48.568;7.870;2023-01-28T05:50:13;2.10;99.90
7117;DHT22;3600;48.568;7.870;2023-01-28T05:52:41;2.10;99.90
7117;DHT22;3600;48.568;7.870;2023-01-28T05:55:08;2.00;99.90
7117;DHT22;3600;48.568;7.870;2023-01-28T05:57:36;1.90;99.90
7117;DHT22;3600;48.568;7.870;2023-01-28T06:00:03;1.90;99.90
7117;DHT22;3600;48.568;7.870;2023-01-28T06:02:31;2.00;99.90
7117;DHT22;3600;48.568;7.870;2023-01-28T06:04:58;2.00;99.90
7117;DHT22;3600;48.568;7.870;2023-01-28T06:07:25;1.90;99.90
7117;DHT22;3600;48.568;7.870;2023-01-28T06:09:52;1.90;99.90
7117;DHT22;3600;48.568;7.870;2023-01-28T06:12:19;2.00;99.90
7117;DHT22;3600;48.568;7.870;2023-01-28T06:14:45;1.90;99.90
7117;DHT22;3600;48.568;7.870;2023-01-28T06:17:12;2.00;99.90
7117;DHT22;3600;48.568;7.870;2023-01-28T06:19:39;2.00;99.90
7117;DHT22;3600;48.568;7.870;2023-01-28T06:22:05;1.90;99.90
7117;DHT22;3600;48.568;7.870;2023-01-28T06:24:32;2.10;99.90
7117;DHT22;3600;48.568;7.870;2023-01-28T06:26:59;2.10;99.90
7117;DHT22;3600;48.568;7.870;2023-01-28T06:29:25;2.00;99.90
7117;DHT22;3600;48.568;7.870;2023-01-28T06:31:52;2.00;99.90
7117;DHT22;3600;48.568;7.870;2023-01-28T06:34:19;1.90;99.90
7117;DHT22;3600;48.568;7.870;2023-01-28T06:36:46;1.80;99.90
7117;DHT22;3600;48.568;7.870;2023-01-28T06:39:13;1.80;99.90
7117;DHT22;3600;48.568;7.870;2023-01-28T06:41:40;1.90;99.90
7117;DHT22;3600;48.568;7.870;2023-01-28T06:44:06;1.80;99.90
7117;DHT22;3600;48.568;7.870;2023-01-28T06:46:33;1.90;99.90
7117;DHT22;3600;48.568;7.870;2023-01-28T06:49:00;1.90;99.90
7117;DHT22;3600;48.568;7.870;2023-01-28T06:51:27;1.90;99.90
7117;DHT22;3600;48.568;7.870;2023-01-28T06:53:54;2.00;99.90
7117;DHT22;3600;48.568;7.870;2023-01-28T06:56:20;2.00;99.90
7117;DHT22;3600;48.568;7.870;2023-01-28T06:58:47;2.00;99.90
7117;DHT22;3600;48.568;7.870;2023-01-28T07:01:14;1.90;99.90
7117;DHT22;3600;48.568;7.870;2023-01-28T07:03:41;2.00;99.90
7117;DHT22;3600;48.568;7.870;2023-01-28T07:06:07;2.00;99.90
7117;DHT22;3600;48.568;7.870;2023-01-28T07:08:34;1.90;99.90
7117;DHT22;3600;48.568;7.870;2023-01-28T07:11:03;2.00;99.90
7117;DHT22;3600;48.568;7.870;2023-01-28T07:13:30;2.10;99.90
7117;DHT22;3600;48.568;7.870;2023-01-28T07:15:57;2.00;99.90
7117;DHT22;3600;48.568;7.870;2023-01-28T07:18:23;1.90;99.90
7117;DHT22;3600;48.568;7.870;2023-01-28T07:20:50;1.80;99.90
7117;DHT22;3600;48.568;7.870;2023-01-28T07:23:17;1.80;99.90
7117;DHT22;3600;48.568;7.870;2023-01-28T07:25:43;1.80;99.90
7117;DHT22;3600;48.568;7.870;2023-01-28T07:28:10;1.90;99.90
7117;DHT22;3600;48.568;7.870;2023-01-28T07:30:38;2.00;99.90
7117;DHT22;3600;48.568;7.870;2023-01-28T07:33:04;2.00;99.90
7117;DHT22;3600;48.568;7.870;2023-01-28T07:35:31;2.00;99.90
7117;DHT22;3600;48.568;7.870;2023-01-28T07:37:59;2.00;99.90
7117;DHT22;3600;48.568;7.870;2023-01-28T07:40:27;2.00;99.90
7117;DHT22;3600;48.568;7.870;2023-01-28T07:42:54;1.90;99.90
7117;DHT22;3600;48.568;7.870;2023-01-28T07:45:25;2.00;99.90
7117;DHT22;3600;48.568;7.870;2023-01-28T07:48:02;2.00;99.90
7117;DHT22;3600;48.568;7.870;2023-01-28T07:50:31;2.10;99.90
7117;DHT22;3600;48.568;7.870;2023-01-28T07:53:02;2.10;99.90
7117;DHT22;3600;48.568;7.870;2023-01-28T07:55:29;2.10;99.90
7117;DHT22;3600;48.568;7.870;2023-01-28T07:57:58;2.10;99.90
7117;DHT22;3600;48.568;7.870;2023-01-28T08:00:28;1.90;99.90
7117;DHT22;3600;48.568;7.870;2023-01-28T08:02:56;1.80;99.90
7117;DHT22;3600;48.568;7.870;2023-01-28T08:05:24;1.90;99.90
7117;DHT22;3600;48.568;7.870;2023-01-28T08:07:52;2.00;99.90
7117;DHT22;3600;48.568;7.870;2023-01-28T08:10:19;2.00;99.90
7117;DHT22;3600;48.568;7.870;2023-01-28T08:12:53;2.10;99.90
7117;DHT22;3600;48.568;7.870;2023-01-28T08:15:21;2.00;99.90
7117;DHT22;3600;48.568;7.870;2023-01-28T08:17:48;1.90;99.90
7117;DHT22;3600;48.568;7.870;2023-01-28T08:20:15;2.00;99.90
7117;DHT22;3600;48.568;7.870;2023-01-28T08:22:42;2.10;99.90
7117;DHT22;3600;48.568;7.870;2023-01-28T08:25:09;2.00;99.90
7117;DHT22;3600;48.568;7.870;2023-01-28T08:27:36;2.00;99.90
7117;DHT22;3600;48.568;7.870;2023-01-28T08:30:03;2.20;99.90
7117;DHT22;3600;48.568;7.870;2023-01-28T08:32:30;2.20;99.90
7117;DHT22;3600;48.568;7.870;2023-01-28T08:34:58;2.20;99.90
7117;DHT22;3600;48.568;7.870;2023-01-28T08:37:25;2.20;99.90
7117;DHT22;3600;48.568;7.870;2023-01-28T08:39:52;2.20;99.90
7117;DHT22;3600;48.568;7.870;2023-01-28T08:42:19;2.20;99.90
7117;DHT22;3600;48.568;7.870;2023-01-28T08:44:46;2.10;99.90
7117;DHT22;3600;48.568;7.870;2023-01-28T08:47:14;2.10;99.90
7117;DHT22;3600;48.568;7.870;2023-01-28T08:49:40;2.10;99.90
7117;DHT22;3600;48.568;7.870;2023-01-28T08:52:07;2.10;99.90
7117;DHT22;3600;48.568;7.870;2023-01-28T08:54:34;2.20;99.90
7117;DHT22;3600;48.568;7.870;2023-01-28T08:57:02;2.30;99.90
7117;DHT22;3600;48.568;7.870;2023-01-28T08:59:29;2.40;99.90
7117;DHT22;3600;48.568;7.870;2023-01-28T09:01:56;2.40;99.90
7117;DHT22;3600;48.568;7.870;2023-01-28T09:04:23;2.40;99.90
7117;DHT22;3600;48.568;7.870;2023-01-28T09:06:49;2.40;99.90
7117;DHT22;3600;48.568;7.870;2023-01-28T09:09:16;2.30;99.90
7117;DHT22;3600;48.568;7.870;2023-01-28T09:11:43;2.30;99.90
7117;DHT22;3600;48.568;7.870;2023-01-28T09:14:10;2.30;99.90
7117;DHT22;3600;48.568;7.870;2023-01-28T09:16:36;2.30;99.90
7117;DHT22;3600;48.568;7.870;2023-01-28T09:19:03;2.30;99.90
7117;DHT22;3600;48.568;7.870;2023-01-28T09:21:30;2.40;99.90
7117;DHT22;3600;48.568;7.870;2023-01-28T09:23:56;2.50;99.90
7117;DHT22;3600;48.568;7.870;2023-01-28T09:26:24;2.50;99.90
7117;DHT22;3600;48.568;7.870;2023-01-28T09:28:50;2.60;99.90
7117;DHT22;3600;48.568;7.870;2023-01-28T09:31:17;2.50;99.90
7117;DHT22;3600;48.568;7.870;2023-01-28T09:33:46;2.60;99.90
7117;DHT22;3600;48.568;7.870;2023-01-28T09:36:12;2.70;99.90
7117;DHT22;3600;48.568;7.870;2023-01-28T09:38:39;2.70;99.90
7117;DHT22;3600;48.568;7.870;2023-01-28T09:41:27;2.70;99.90
7117;DHT22;3600;48.568;7.870;2023-01-28T09:46:33;2.60;99.90
7117;DHT22;3600;48.568;7.870;2023-01-28T09:49:23;2.80;99.90
7117;DHT22;3600;48.568;7.870;2023-01-28T09:51:53;2.90;99.90
7117;DHT22;3600;48.568;7.870;2023-01-28T09:54:37;2.90;99.90
7117;DHT22;3600;48.568;7.870;2023-01-28T09:57:13;2.80;99.90
7117;DHT22;3600;48.568;7.870;2023-01-28T09:59:43;2.90;99.90
7117;DHT22;3600;48.568;7.870;2023-01-28T10:10:47;3.10;99.90
7117;DHT22;3600;48.568;7.870;2023-01-28T10:13:31;3.10;99.90
7117;DHT22;3600;48.568;7.870;2023-01-28T10:16:11;3.00;99.90
7117;DHT22;3600;48.568;7.870;2023-01-28T10:18:59;3.00;99.90
7117;DHT22;3600;48.568;7.870;2023-01-28T10:21:45;3.10;99.90
7117;DHT22;3600;48.568;7.870;2023-01-28T10:24:32;3.00;99.90
7117;DHT22;3600;48.568;7.870;2023-01-28T10:27:01;3.10;99.90
7117;DHT22;3600;48.568;7.870;2023-01-28T10:29:32;3.10;99.90
7117;DHT22;3600;48.568;7.870;2023-01-28T10:32:23;3.20;99.90
7117;DHT22;3600;48.568;7.870;2023-01-28T10:34:52;3.20;99.90
7117;DHT22;3600;48.568;7.870;2023-01-28T10:37:20;3.20;99.90
7117;DHT22;3600;48.568;7.870;2023-01-28T10:39:47;3.30;99.90
7117;DHT22;3600;48.568;7.870;2023-01-28T10:42:33;3.40;99.90
7117;DHT22;3600;48.568;7.870;2023-01-28T10:45:02;3.40;99.90
7117;DHT22;3600;48.568;7.870;2023-01-28T10:47:37;3.50;99.90
7117;DHT22;3600;48.568;7.870;2023-01-28T10:50:06;3.50;99.90
7117;DHT22;3600;48.568;7.870;2023-01-28T10:52:57;3.30;99.90
7117;DHT22;3600;48.568;7.870;2023-01-28T10:55:30;3.50;99.90
7117;DHT22;3600;48.568;7.870;2023-01-28T10:57:57;3.50;99.90
7117;DHT22;3600;48.568;7.870;2023-01-28T11:00:34;3.60;99.90
7117;DHT22;3600;48.568;7.870;2023-01-28T11:03:02;3.50;99.90
7117;DHT22;3600;48.568;7.870;2023-01-28T11:05:30;3.60;99.90
7117;DHT22;3600;48.568;7.870;2023-01-28T11:10:31;3.70;99.90
7117;DHT22;3600;48.568;7.870;2023-01-28T11:13:02;3.70;99.90
7117;DHT22;3600;48.568;7.870;2023-01-28T11:15:29;3.70;99.90
7117;DHT22;3600;48.568;7.870;2023-01-28T11:17:59;3.80;99.90
7117;DHT22;3600;48.568;7.870;2023-01-28T11:20:30;3.70;99.90
7117;DHT22;3600;48.568;7.870;2023-01-28T11:22:58;3.70;99.90
7117;DHT22;3600;48.568;7.870;2023-01-28T11:25:35;3.80;99.90
7117;DHT22;3600;48.568;7.870;2023-01-28T11:28:07;3.60;99.90
7117;DHT22;3600;48.568;7.870;2023-01-28T11:30:40;3.50;99.90
7117;DHT22;3600;48.568;7.870;2023-01-28T11:35:40;3.50;99.90
7117;DHT22;3600;48.568;7.870;2023-01-28T11:38:18;3.60;99.90
7117;DHT22;3600;48.568;7.870;2023-01-28T11:40:56;3.60;99.90
7117;DHT22;3600;48.568;7.870;2023-01-28T11:43:25;3.70;99.90
7117;DHT22;3600;48.568;7.870;2023-01-28T11:46:07;3.70;99.90
7117;DHT22;3600;48.568;7.870;2023-01-28T11:48:54;3.80;99.90
7117;DHT22;3600;48.568;7.870;2023-01-28T11:51:32;3.70;99.90
7117;DHT22;3600;48.568;7.870;2023-01-28T12:07:53;3.60;99.90
7117;DHT22;3600;48.568;7.870;2023-01-28T12:21:20;3.50;99.90
7117;DHT22;3600;48.568;7.870;2023-01-28T12:23:59;3.50;99.90
7117;DHT22;3600;48.568;7.870;2023-01-28T12:26:39;3.50;99.90
7117;DHT22;3600;48.568;7.870;2023-01-28T12:32:12;3.40;99.90
7117;DHT22;3600;48.568;7.870;2023-01-28T12:34:48;3.50;99.90
7117;DHT22;3600;48.568;7.870;2023-01-28T12:41:01;3.50;99.90
7117;DHT22;3600;48.568;7.870;2023-01-28T12:45:44;3.30;99.90
7117;DHT22;3600;48.568;7.870;2023-01-28T12:48:26;3.30;99.90
7117;DHT22;3600;48.568;7.870;2023-01-28T12:51:09;3.30;99.90
7117;DHT22;3600;48.568;7.870;2023-01-28T12:56:23;3.30;99.90
7117;DHT22;3600;48.568;7.870;2023-01-28T12:59:04;3.30;99.90
7117;DHT22;3600;48.568;7.870;2023-01-28T13:01:48;3.30;99.90
7117;DHT22;3600;48.568;7.870;2023-01-28T13:07:12;3.40;99.90
7117;DHT22;3600;48.568;7.870;2023-01-28T13:09:48;3.40;99.90
7117;DHT22;3600;48.568;7.870;2023-01-28T13:12:18;3.60;99.90
7117;DHT22;3600;48.568;7.870;2023-01-28T13:14:46;3.60;99.90
7117;DHT22;3600;48.568;7.870;2023-01-28T13:17:28;3.60;99.90
7117;DHT22;3600;48.568;7.870;2023-01-28T13:19:57;3.60;99.90
7117;DHT22;3600;48.568;7.870;2023-01-28T13:22:32;3.50;99.90
7117;DHT22;3600;48.568;7.870;2023-01-28T13:25:23;3.60;99.90
7117;DHT22;3600;48.568;7.870;2023-01-28T13:28:05;3.40;99.90
7117;DHT22;3600;48.568;7.870;2023-01-28T13:30:35;3.60;99.90
7117;DHT22;3600;48.568;7.870;2023-01-28T13:33:28;3.40;99.90
7117;DHT22;3600;48.568;7.870;2023-01-28T13:35:55;3.30;99.90
7117;DHT22;3600;48.568;7.870;2023-01-28T13:38:22;3.30;99.90
7117;DHT22;3600;48.568;7.870;2023-01-28T13:40:55;3.30;99.90
7117;DHT22;3600;48.568;7.870;2023-01-28T13:46:12;3.30;99.90
7117;DHT22;3600;48.568;7.870;2023-01-28T13:48:51;3.30;99.90
7117;DHT22;3600;48.568;7.870;2023-01-28T13:51:30;3.20;99.90
7117;DHT22;3600;48.568;7.870;2023-01-28T13:57:00;3.40;99.90
7117;DHT22;3600;48.568;7.870;2023-01-28T14:02:56;3.20;99.90
7117;DHT22;3600;48.568;7.870;2023-01-28T14:14:49;3.20;99.90
7117;DHT22;3600;48.568;7.870;2023-01-28T14:17:31;3.30;99.90
7117;DHT22;3600;48.568;7.870;2023-01-28T14:20:02;3.30;99.90
7117;DHT22;3600;48.568;7.870;2023-01-28T14:22:30;3.20;99.90
7117;DHT22;3600;48.568;7.870;2023-01-28T14:24:59;3.30;99.90
7117;DHT22;3600;48.568;7.870;2023-01-28T14:27:34;3.20;99.90
7117;DHT22;3600;48.568;7.870;2023-01-28T14:32:51;3.30;99.90
7117;DHT22;3600;48.568;7.870;2023-01-28T14:35:42;3.20;99.90
7117;DHT22;3600;48.568;7.870;2023-01-28T14:38:15;3.30;99.90
7117;DHT22;3600;48.568;7.870;2023-01-28T14:40:42;3.30;99.90
7117;DHT22;3600;48.568;7.870;2023-01-28T14:43:22;3.20;99.90
7117;DHT22;3600;48.568;7.870;2023-01-28T14:48:28;3.10;99.90
7117;DHT22;3600;48.568;7.870;2023-01-28T14:52:00;3.10;99.90
7117;DHT22;3600;48.568;7.870;2023-01-28T14:54:08;3.00;99.90
7117;DHT22;3600;48.568;7.870;2023-01-28T14:59:29;3.10;99.90
7117;DHT22;3600;48.568;7.870;2023-01-28T15:01:58;3.20;99.90
7117;DHT22;3600;48.568;7.870;2023-01-28T15:04:31;3.20;99.90
7117;DHT22;3600;48.568;7.870;2023-01-28T15:07:16;3.20;99.90
7117;DHT22;3600;48.568;7.870;2023-01-28T15:09:44;3.10;99.90
7117;DHT22;3600;48.568;7.870;2023-01-28T15:12:10;3.00;99.90
7117;DHT22;3600;48.568;7.870;2023-01-28T15:14:38;3.20;99.90
7117;DHT22;3600;48.568;7.870;2023-01-28T15:17:18;3.10;99.90
7117;DHT22;3600;48.568;7.870;2023-01-28T15:19:47;3.10;99.90
7117;DHT22;3600;48.568;7.870;2023-01-28T15:22:14;3.10;99.90
7117;DHT22;3600;48.568;7.870;2023-01-28T15:24:42;3.10;99.90
7117;DHT22;3600;48.568;7.870;2023-01-28T15:27:17;3.10;99.90
7117;DHT22;3600;48.568;7.870;2023-01-28T15:29:52;3.00;99.90
7117;DHT22;3600;48.568;7.870;2023-01-28T15:32:23;3.10;99.90
7117;DHT22;3600;48.568;7.870;2023-01-28T15:34:50;3.10;99.90
7117;DHT22;3600;48.568;7.870;2023-01-28T15:37:18;3.10;99.90
7117;DHT22;3600;48.568;7.870;2023-01-28T15:39:45;3.00;99.90
7117;DHT22;3600;48.568;7.870;2023-01-28T15:42:19;3.10;99.90
7117;DHT22;3600;48.568;7.870;2023-01-28T15:44:48;3.10;99.90
7117;DHT22;3600;48.568;7.870;2023-01-28T15:47:25;3.20;99.90
7117;DHT22;3600;48.568;7.870;2023-01-28T15:49:54;3.10;99.90
7117;DHT22;3600;48.568;7.870;2023-01-28T15:52:32;3.00;99.90
7117;DHT22;3600;48.568;7.870;2023-01-28T15:54:59;3.10;99.90
7117;DHT22;3600;48.568;7.870;2023-01-28T15:57:29;3.10;99.90
7117;DHT22;3600;48.568;7.870;2023-01-28T16:02:32;3.00;99.90
7117;DHT22;3600;48.568;7.870;2023-01-28T16:05:01;3.00;99.90
7117;DHT22;3600;48.568;7.870;2023-01-28T16:07:30;3.10;99.90
7117;DHT22;3600;48.568;7.870;2023-01-28T16:10:00;3.00;99.90
7117;DHT22;3600;48.568;7.870;2023-01-28T16:12:27;3.10;99.90
7117;DHT22;3600;48.568;7.870;2023-01-28T16:15:01;3.10;99.90
7117;DHT22;3600;48.568;7.870;2023-01-28T16:17:32;3.00;99.90
7117;DHT22;3600;48.568;7.870;2023-01-28T16:20:07;3.00;99.90
7117;DHT22;3600;48.568;7.870;2023-01-28T16:22:39;3.10;99.90
7117;DHT22;3600;48.568;7.870;2023-01-28T16:25:29;3.00;99.90
7117;DHT22;3600;48.568;7.870;2023-01-28T16:27:57;3.00;99.90
7117;DHT22;3600;48.568;7.870;2023-01-28T16:30:25;3.00;99.90
7117;DHT22;3600;48.568;7.870;2023-01-28T16:32:52;2.90;99.90
7117;DHT22;3600;48.568;7.870;2023-01-28T16:35:27;2.90;99.90
7117;DHT22;3600;48.568;7.870;2023-01-28T16:38:13;2.90;99.90
7117;DHT22;3600;48.568;7.870;2023-01-28T16:40:43;3.00;99.90
7117;DHT22;3600;48.568;7.870;2023-01-28T16:43:13;2.90;99.90
7117;DHT22;3600;48.568;7.870;2023-01-28T16:45:43;2.90;99.90
7117;DHT22;3600;48.568;7.870;2023-01-28T16:48:12;2.90;99.90
7117;DHT22;3600;48.568;7.870;2023-01-28T16:50:41;3.00;99.90
7117;DHT22;3600;48.568;7.870;2023-01-28T16:53:19;2.90;99.90
7117;DHT22;3600;48.568;7.870;2023-01-28T16:55:48;2.80;99.90
7117;DHT22;3600;48.568;7.870;2023-01-28T16:58:18;2.80;99.90
7117;DHT22;3600;48.568;7.870;2023-01-28T17:00:48;2.80;99.90
7117;DHT22;3600;48.568;7.870;2023-01-28T17:03:14;2.80;99.90
7117;DHT22;3600;48.568;7.870;2023-01-28T17:05:41;2.90;99.90
7117;DHT22;3600;48.568;7.870;2023-01-28T17:08:08;2.90;99.90
7117;DHT22;3600;48.568;7.870;2023-01-28T17:10:35;2.80;99.90
7117;DHT22;3600;48.568;7.870;2023-01-28T17:13:02;2.90;99.90
7117;DHT22;3600;48.568;7.870;2023-01-28T17:15:29;3.00;99.90
7117;DHT22;3600;48.568;7.870;2023-01-28T17:17:56;3.00;99.90
7117;DHT22;3600;48.568;7.870;2023-01-28T17:20:22;3.00;99.90
7117;DHT22;3600;48.568;7.870;2023-01-28T17:22:49;2.90;99.90
7117;DHT22;3600;48.568;7.870;2023-01-28T17:25:16;2.90;99.90
7117;DHT22;3600;48.568;7.870;2023-01-28T17:27:43;3.00;99.90
7117;DHT22;3600;48.568;7.870;2023-01-28T17:30:10;3.00;99.90
7117;DHT22;3600;48.568;7.870;2023-01-28T17:32:37;3.00;99.90
7117;DHT22;3600;48.568;7.870;2023-01-28T17:35:04;3.00;99.90
7117;DHT22;3600;48.568;7.870;2023-01-28T17:37:31;2.90;99.90
7117;DHT22;3600;48.568;7.870;2023-01-28T17:39:58;2.80;99.90
7117;DHT22;3600;48.568;7.870;2023-01-28T17:42:25;2.80;99.90
7117;DHT22;3600;48.568;7.870;2023-01-28T17:44:53;2.80;99.90
7117;DHT22;3600;48.568;7.870;2023-01-28T17:47:20;2.80;99.90
7117;DHT22;3600;48.568;7.870;2023-01-28T17:49:47;2.70;99.90
7117;DHT22;3600;48.568;7.870;2023-01-28T17:52:13;2.70;99.90
7117;DHT22;3600;48.568;7.870;2023-01-28T17:54:40;2.80;99.90
7117;DHT22;3600;48.568;7.870;2023-01-28T17:57:07;2.90;99.90
7117;DHT22;3600;48.568;7.870;2023-01-28T17:59:33;2.80;99.90
7117;DHT22;3600;48.568;7.870;2023-01-28T18:02:00;2.80;99.90
7117;DHT22;3600;48.568;7.870;2023-01-28T18:04:27;2.90;99.90
7117;DHT22;3600;48.568;7.870;2023-01-28T18:06:54;2.90;99.90
7117;DHT22;3600;48.568;7.870;2023-01-28T18:09:20;2.90;99.90
7117;DHT22;3600;48.568;7.870;2023-01-28T18:11:47;2.90;99.90
7117;DHT22;3600;48.568;7.870;2023-01-28T18:14:14;2.90;99.90
7117;DHT22;3600;48.568;7.870;2023-01-28T18:16:40;2.80;99.90